sensor_id;sensor_type;location;lat;lon;timestamp;temperature;humidity
5009;DHT22;2523;51.058;6.922;2022-08-11T00:01:54;22.50;44.10
5009;DHT22;2523;51.058;6.922;2022-08-11T00:04:23;22.40;44.70
5009;DHT22;2523;51.058;6.922;2022-08-11T00:06:50;22.40;44.70
5009;DHT22;2523;51.058;6.922;2022-08-11T00:09:21;22.40;44.70
5009;DHT22;2523;51.058;6.922;2022-08-11T00:11:56;22.40;44.70
5009;DHT22;2523;51.058;6.922;2022-08-11T00:14:27;22.40;45.00
5009;DHT22;2523;51.058;6.922;2022-08-11T00:17:02;22.40;45.30
5009;DHT22;2523;51.058;6.922;2022-08-11T00:19:31;22.40;45.40
5009;DHT22;2523;51.058;6.922;2022-08-11T00:21:59;22.40;44.90
5009;DHT22;2523;51.058;6.922;2022-08-11T00:24:32;22.40;45.10
5009;DHT22;2523;51.058;6.922;2022-08-11T00:26:57;22.40;45.60
5009;DHT22;2523;51.058;6.922;2022-08-11T00:29:23;22.30;46.30
5009;DHT22;2523;51.058;6.922;2022-08-11T00:31:54;22.30;47.00
5009;DHT22;2523;51.058;6.922;2022-08-11T00:34:29;22.20;46.90
5009;DHT22;2523;51.058;6.922;2022-08-11T00:37:19;22.20;46.80
5009;DHT22;2523;51.058;6.922;2022-08-11T00:39:49;22.10;47.20
5009;DHT22;2523;51.058;6.922;2022-08-11T00:45:19;22.00;48.40
5009;DHT22;2523;51.058;6.922;2022-08-11T00:50:46;21.90;50.20
5009;DHT22;2523;51.058;6.922;2022-08-11T00:53:44;21.90;51.00
5009;DHT22;2523;51.058;6.922;2022-08-11T01:09:46;21.70;57.50
5009;DHT22;2523;51.058;6.922;2022-08-11T01:15:30;21.60;58.80
5009;DHT22;2523;51.058;6.922;2022-08-11T01:27:14;21.50;62.40
5009;DHT22;2523;51.058;6.922;2022-08-11T01:30:13;21.50;62.90
5009;DHT22;2523;51.058;6.922;2022-08-11T01:33:07;21.50;63.60
5009;DHT22;2523;51.058;6.922;2022-08-11T01:45:05;21.30;73.40
5009;DHT22;2523;51.058;6.922;2022-08-11T01:47:46;21.30;75.10
5009;DHT22;2523;51.058;6.922;2022-08-11T01:50:22;21.30;73.50
5009;DHT22;2523;51.058;6.922;2022-08-11T01:59:27;21.30;75.10
5009;DHT22;2523;51.058;6.922;2022-08-11T02:02:02;21.20;85.70
5009;DHT22;2523;51.058;6.922;2022-08-11T02:04:55;21.20;91.90
5009;DHT22;2523;51.058;6.922;2022-08-11T02:13:59;20.90;99.90
5009;DHT22;2523;51.058;6.922;2022-08-11T02:16:46;21.00;99.90
5009;DHT22;2523;51.058;6.922;2022-08-11T02:22:04;20.90;99.90
5009;DHT22;2523;51.058;6.922;2022-08-11T02:25:02;20.80;99.90
5009;DHT22;2523;51.058;6.922;2022-08-11T04:11:44;20.30;99.90
5009;DHT22;2523;51.058;6.922;2022-08-11T04:30:05;20.30;99.90
5009;DHT22;2523;51.058;6.922;2022-08-11T04:35:57;20.20;99.90
5009;DHT22;2523;51.058;6.922;2022-08-11T04:47:18;20.20;99.90
5009;DHT22;2523;51.058;6.922;2022-08-11T04:50:21;20.20;99.90
5009;DHT22;2523;51.058;6.922;2022-08-11T04:56:22;20.20;99.90
5009;DHT22;2523;51.058;6.922;2022-08-11T04:59:42;20.20;99.90
5009;DHT22;2523;51.058;6.922;2022-08-11T05:06:03;20.20;99.90
5009;DHT22;2523;51.058;6.922;2022-08-11T05:14:52;20.00;99.90
5009;DHT22;2523;51.058;6.922;2022-08-11T05:17:44;20.00;99.90
5009;DHT22;2523;51.058;6.922;2022-08-11T05:20:46;20.00;99.90
5009;DHT22;2523;51.058;6.922;2022-08-11T05:23:34;20.00;99.90
5009;DHT22;2523;51.058;6.922;2022-08-11T05:26:19;20.10;99.90
5009;DHT22;2523;51.058;6.922;2022-08-11T05:29:24;20.10;99.90
5009;DHT22;2523;51.058;6.922;2022-08-11T05:32:11;20.10;99.90
5009;DHT22;2523;51.058;6.922;2022-08-11T05:35:01;20.20;99.90
5009;DHT22;2523;51.058;6.922;2022-08-11T05:40:10;20.30;99.90
5009;DHT22;2523;51.058;6.922;2022-08-11T05:42:58;20.40;99.90
5009;DHT22;2523;51.058;6.922;2022-08-11T05:45:43;20.50;99.90
5009;DHT22;2523;51.058;6.922;2022-08-11T05:48:33;20.60;99.90
5009;DHT22;2523;51.058;6.922;2022-08-11T05:51:18;20.70;99.90
5009;DHT22;2523;51.058;6.922;2022-08-11T05:54:06;20.80;99.90
5009;DHT22;2523;51.058;6.922;2022-08-11T05:56:54;20.80;99.90
5009;DHT22;2523;51.058;6.922;2022-08-11T05:59:22;20.90;99.90
5009;DHT22;2523;51.058;6.922;2022-08-11T06:01:48;20.90;99.90
5009;DHT22;2523;51.058;6.922;2022-08-11T06:04:23;20.90;99.90
5009;DHT22;2523;51.058;6.922;2022-08-11T06:09:28;21.00;99.90
5009;DHT22;2523;51.058;6.922;2022-08-11T06:11:57;21.10;99.90
5009;DHT22;2523;51.058;6.922;2022-08-11T06:14:24;21.20;99.90
5009;DHT22;2523;51.058;6.922;2022-08-11T06:16:54;21.30;99.90
5009;DHT22;2523;51.058;6.922;2022-08-11T06:19:21;21.40;99.90
5009;DHT22;2523;51.058;6.922;2022-08-11T06:21:48;21.50;99.90
5009;DHT22;2523;51.058;6.922;2022-08-11T06:24:16;21.50;98.70
5009;DHT22;2523;51.058;6.922;2022-08-11T06:26:50;21.60;99.90
5009;DHT22;2523;51.058;6.922;2022-08-11T06:29:16;21.60;99.90
5009;DHT22;2523;51.058;6.922;2022-08-11T06:31:55;21.70;99.90
5009;DHT22;2523;51.058;6.922;2022-08-11T06:40:00;22.00;99.90
5009;DHT22;2523;51.058;6.922;2022-08-11T06:42:37;22.00;98.60
5009;DHT22;2523;51.058;6.922;2022-08-11T06:45:19;22.10;95.00
5009;DHT22;2523;51.058;6.922;2022-08-11T06:47:49;22.20;94.10
5009;DHT22;2523;51.058;6.922;2022-08-11T06:50:19;22.20;89.70
5009;DHT22;2523;51.058;6.922;2022-08-11T06:53:07;22.30;89.30
5009;DHT22;2523;51.058;6.922;2022-08-11T06:55:35;22.40;87.60
5009;DHT22;2523;51.058;6.922;2022-08-11T06:58:23;22.50;85.60
5009;DHT22;2523;51.058;6.922;2022-08-11T07:01:13;22.60;81.60
5009;DHT22;2523;51.058;6.922;2022-08-11T07:03:44;22.70;73.30
5009;DHT22;2523;51.058;6.922;2022-08-11T07:06:38;22.80;73.40
5009;DHT22;2523;51.058;6.922;2022-08-11T07:09:18;22.80;70.30
5009;DHT22;2523;51.058;6.922;2022-08-11T07:12:58;22.90;69.20
5009;DHT22;2523;51.058;6.922;2022-08-11T07:15:30;22.90;71.60
5009;DHT22;2523;51.058;6.922;2022-08-11T07:18:24;23.10;69.10
5009;DHT22;2523;51.058;6.922;2022-08-11T07:21:30;23.20;68.30
5009;DHT22;2523;51.058;6.922;2022-08-11T07:24:40;23.20;60.90
5009;DHT22;2523;51.058;6.922;2022-08-11T07:27:36;23.30;60.90
5009;DHT22;2523;51.058;6.922;2022-08-11T07:30:23;23.40;58.50
5009;DHT22;2523;51.058;6.922;2022-08-11T07:32:53;23.50;60.60
5009;DHT22;2523;51.058;6.922;2022-08-11T07:38:10;23.60;57.50
5009;DHT22;2523;51.058;6.922;2022-08-11T07:40:38;23.60;57.70
5009;DHT22;2523;51.058;6.922;2022-08-11T07:43:04;23.70;56.00
5009;DHT22;2523;51.058;6.922;2022-08-11T07:45:31;23.80;56.60
5009;DHT22;2523;51.058;6.922;2022-08-11T07:48:17;23.90;56.60
5009;DHT22;2523;51.058;6.922;2022-08-11T07:51:01;24.00;56.70
5009;DHT22;2523;51.058;6.922;2022-08-11T07:53:47;24.10;56.40
5009;DHT22;2523;51.058;6.922;2022-08-11T07:56:13;24.10;56.10
5009;DHT22;2523;51.058;6.922;2022-08-11T07:58:40;24.20;54.20
5009;DHT22;2523;51.058;6.922;2022-08-11T08:01:26;24.30;51.20
5009;DHT22;2523;51.058;6.922;2022-08-11T08:04:13;24.50;53.40
5009;DHT22;2523;51.058;6.922;2022-08-11T08:06:58;24.60;53.80
5009;DHT22;2523;51.058;6.922;2022-08-11T08:09:43;24.70;52.30
5009;DHT22;2523;51.058;6.922;2022-08-11T08:12:28;24.80;49.90
5009;DHT22;2523;51.058;6.922;2022-08-11T08:15:14;24.90;47.70
5009;DHT22;2523;51.058;6.922;2022-08-11T08:18:01;25.10;49.10
5009;DHT22;2523;51.058;6.922;2022-08-11T08:20:37;25.20;48.80
5009;DHT22;2523;51.058;6.922;2022-08-11T08:23:04;25.30;43.90
5009;DHT22;2523;51.058;6.922;2022-08-11T08:25:33;25.50;42.20
5009;DHT22;2523;51.058;6.922;2022-08-11T08:28:02;25.60;41.10
5009;DHT22;2523;51.058;6.922;2022-08-11T08:30:29;25.80;42.60
5009;DHT22;2523;51.058;6.922;2022-08-11T08:33:20;25.90;41.30
5009;DHT22;2523;51.058;6.922;2022-08-11T08:35:57;26.10;39.90
5009;DHT22;2523;51.058;6.922;2022-08-11T08:38:49;26.20;40.40
5009;DHT22;2523;51.058;6.922;2022-08-11T08:41:22;26.40;39.80
5009;DHT22;2523;51.058;6.922;2022-08-11T08:43:53;26.50;38.50
5009;DHT22;2523;51.058;6.922;2022-08-11T08:46:27;26.60;37.30
5009;DHT22;2523;51.058;6.922;2022-08-11T08:48:57;26.70;38.10
5009;DHT22;2523;51.058;6.922;2022-08-11T08:51:24;26.80;36.00
5009;DHT22;2523;51.058;6.922;2022-08-11T08:54:06;26.90;35.00
5009;DHT22;2523;51.058;6.922;2022-08-11T08:56:32;26.90;37.30
5009;DHT22;2523;51.058;6.922;2022-08-11T08:59:00;27.00;36.60
5009;DHT22;2523;51.058;6.922;2022-08-11T09:01:35;27.10;34.50
5009;DHT22;2523;51.058;6.922;2022-08-11T09:04:07;27.20;33.90
5009;DHT22;2523;51.058;6.922;2022-08-11T09:06:36;27.20;34.40
5009;DHT22;2523;51.058;6.922;2022-08-11T09:09:04;27.40;34.70
5009;DHT22;2523;51.058;6.922;2022-08-11T09:11:36;27.50;33.20
5009;DHT22;2523;51.058;6.922;2022-08-11T09:14:25;27.60;33.60
5009;DHT22;2523;51.058;6.922;2022-08-11T09:17:11;27.70;32.80
5009;DHT22;2523;51.058;6.922;2022-08-11T09:19:37;27.80;31.40
5009;DHT22;2523;51.058;6.922;2022-08-11T09:22:04;27.90;30.10
5009;DHT22;2523;51.058;6.922;2022-08-11T09:24:49;28.00;29.80
5009;DHT22;2523;51.058;6.922;2022-08-11T09:27:34;28.20;30.10
5009;DHT22;2523;51.058;6.922;2022-08-11T09:30:05;28.20;31.30
5009;DHT22;2523;51.058;6.922;2022-08-11T09:32:32;28.40;30.10
5009;DHT22;2523;51.058;6.922;2022-08-11T09:35:01;28.50;30.70
5009;DHT22;2523;51.058;6.922;2022-08-11T09:37:28;28.70;31.50
5009;DHT22;2523;51.058;6.922;2022-08-11T09:40:13;28.80;29.50
5009;DHT22;2523;51.058;6.922;2022-08-11T09:42:58;28.90;28.70
5009;DHT22;2523;51.058;6.922;2022-08-11T09:45:49;29.10;27.70
5009;DHT22;2523;51.058;6.922;2022-08-11T09:48:19;29.00;27.60
5009;DHT22;2523;51.058;6.922;2022-08-11T09:50:49;29.20;28.00
5009;DHT22;2523;51.058;6.922;2022-08-11T09:53:16;29.30;27.80
5009;DHT22;2523;51.058;6.922;2022-08-11T09:55:46;29.30;27.30
5009;DHT22;2523;51.058;6.922;2022-08-11T09:58:15;29.50;26.40
5009;DHT22;2523;51.058;6.922;2022-08-11T10:00:44;29.60;26.30
5009;DHT22;2523;51.058;6.922;2022-08-11T10:03:20;29.70;24.80
5009;DHT22;2523;51.058;6.922;2022-08-11T10:05:48;29.70;24.70
5009;DHT22;2523;51.058;6.922;2022-08-11T10:08:34;29.70;25.80
5009;DHT22;2523;51.058;6.922;2022-08-11T10:11:02;29.80;25.00
5009;DHT22;2523;51.058;6.922;2022-08-11T10:13:33;30.10;26.00
5009;DHT22;2523;51.058;6.922;2022-08-11T10:16:19;30.20;25.60
5009;DHT22;2523;51.058;6.922;2022-08-11T10:18:49;30.40;23.60
5009;DHT22;2523;51.058;6.922;2022-08-11T10:21:28;30.50;22.90
5009;DHT22;2523;51.058;6.922;2022-08-11T10:23:57;30.60;23.30
5009;DHT22;2523;51.058;6.922;2022-08-11T10:26:42;30.80;22.90
5009;DHT22;2523;51.058;6.922;2022-08-11T10:29:31;30.80;22.10
5009;DHT22;2523;51.058;6.922;2022-08-11T10:32:20;31.00;22.70
5009;DHT22;2523;51.058;6.922;2022-08-11T10:35:05;31.20;22.00
5009;DHT22;2523;51.058;6.922;2022-08-11T10:37:35;31.20;21.40
5009;DHT22;2523;51.058;6.922;2022-08-11T10:40:03;31.20;21.30
5009;DHT22;2523;51.058;6.922;2022-08-11T10:42:30;31.30;22.40
5009;DHT22;2523;51.058;6.922;2022-08-11T10:45:16;31.50;22.70
5009;DHT22;2523;51.058;6.922;2022-08-11T10:48:03;31.60;22.00
5009;DHT22;2523;51.058;6.922;2022-08-11T10:50:29;31.70;20.70
5009;DHT22;2523;51.058;6.922;2022-08-11T10:53:14;31.70;20.90
5009;DHT22;2523;51.058;6.922;2022-08-11T10:56:02;31.90;21.10
5009;DHT22;2523;51.058;6.922;2022-08-11T10:58:46;32.00;21.30
5009;DHT22;2523;51.058;6.922;2022-08-11T11:01:32;32.10;21.00
5009;DHT22;2523;51.058;6.922;2022-08-11T11:04:32;32.10;19.60
5009;DHT22;2523;51.058;6.922;2022-08-11T11:07:07;32.00;21.30
5009;DHT22;2523;51.058;6.922;2022-08-11T11:09:45;32.10;21.20
5009;DHT22;2523;51.058;6.922;2022-08-11T11:12:33;32.10;20.90
5009;DHT22;2523;51.058;6.922;2022-08-11T11:15:20;32.20;20.60
5009;DHT22;2523;51.058;6.922;2022-08-11T11:18:14;32.10;19.00
5009;DHT22;2523;51.058;6.922;2022-08-11T11:20:59;32.60;19.50
5009;DHT22;2523;51.058;6.922;2022-08-11T11:23:42;32.90;18.40
5009;DHT22;2523;51.058;6.922;2022-08-11T11:26:26;33.10;18.60
5009;DHT22;2523;51.058;6.922;2022-08-11T11:37:04;33.30;18.40
5009;DHT22;2523;51.058;6.922;2022-08-11T11:39:31;33.50;18.00
5009;DHT22;2523;51.058;6.922;2022-08-11T11:42:01;33.30;16.30
5009;DHT22;2523;51.058;6.922;2022-08-11T11:44:28;33.30;16.90
5009;DHT22;2523;51.058;6.922;2022-08-11T11:46:55;33.30;17.30
5009;DHT22;2523;51.058;6.922;2022-08-11T11:49:24;33.60;18.40
5009;DHT22;2523;51.058;6.922;2022-08-11T11:51:51;33.50;16.90
5009;DHT22;2523;51.058;6.922;2022-08-11T11:54:23;33.80;18.00
5009;DHT22;2523;51.058;6.922;2022-08-11T11:56:51;33.60;17.10
5009;DHT22;2523;51.058;6.922;2022-08-11T11:59:19;34.00;18.20
5009;DHT22;2523;51.058;6.922;2022-08-11T12:02:08;34.40;17.10
5009;DHT22;2523;51.058;6.922;2022-08-11T12:04:37;34.20;16.60
5009;DHT22;2523;51.058;6.922;2022-08-11T12:07:04;34.30;16.50
5009;DHT22;2523;51.058;6.922;2022-08-11T12:09:51;34.40;16.80
5009;DHT22;2523;51.058;6.922;2022-08-11T12:12:17;34.50;16.40
5009;DHT22;2523;51.058;6.922;2022-08-11T12:15:01;34.60;16.80
5009;DHT22;2523;51.058;6.922;2022-08-11T12:17:27;34.60;16.60
5009;DHT22;2523;51.058;6.922;2022-08-11T12:19:53;34.70;17.30
5009;DHT22;2523;51.058;6.922;2022-08-11T12:22:19;34.70;16.20
5009;DHT22;2523;51.058;6.922;2022-08-11T12:25:04;34.50;15.90
5009;DHT22;2523;51.058;6.922;2022-08-11T12:27:49;34.40;15.40
5009;DHT22;2523;51.058;6.922;2022-08-11T12:30:18;34.10;16.00
5009;DHT22;2523;51.058;6.922;2022-08-11T12:32:43;34.50;16.80
5009;DHT22;2523;51.058;6.922;2022-08-11T12:35:10;34.50;16.60
5009;DHT22;2523;51.058;6.922;2022-08-11T12:37:44;34.30;16.00
5009;DHT22;2523;51.058;6.922;2022-08-11T12:40:17;34.20;16.00
5009;DHT22;2523;51.058;6.922;2022-08-11T12:43:04;34.30;16.10
5009;DHT22;2523;51.058;6.922;2022-08-11T12:45:54;34.30;15.50
5009;DHT22;2523;51.058;6.922;2022-08-11T12:48:23;34.30;15.80
5009;DHT22;2523;51.058;6.922;2022-08-11T12:51:15;34.30;14.80
5009;DHT22;2523;51.058;6.922;2022-08-11T12:56:49;34.80;15.30
5009;DHT22;2523;51.058;6.922;2022-08-11T12:59:38;34.70;15.20
5009;DHT22;2523;51.058;6.922;2022-08-11T13:02:23;34.40;15.00
5009;DHT22;2523;51.058;6.922;2022-08-11T13:05:11;34.60;15.00
5009;DHT22;2523;51.058;6.922;2022-08-11T13:07:37;34.50;14.70
5009;DHT22;2523;51.058;6.922;2022-08-11T13:10:08;34.70;14.80
5009;DHT22;2523;51.058;6.922;2022-08-11T13:12:35;35.00;14.70
5009;DHT22;2523;51.058;6.922;2022-08-11T13:15:21;35.10;14.30
5009;DHT22;2523;51.058;6.922;2022-08-11T13:17:48;35.10;14.30
5009;DHT22;2523;51.058;6.922;2022-08-11T13:20:17;34.60;14.80
5009;DHT22;2523;51.058;6.922;2022-08-11T13:22:47;34.40;14.20
5009;DHT22;2523;51.058;6.922;2022-08-11T13:25:16;34.20;14.20
5009;DHT22;2523;51.058;6.922;2022-08-11T13:27:43;34.40;15.10
5009;DHT22;2523;51.058;6.922;2022-08-11T13:30:10;34.70;15.20
5009;DHT22;2523;51.058;6.922;2022-08-11T13:32:55;35.00;15.30
5009;DHT22;2523;51.058;6.922;2022-08-11T13:35:21;35.20;14.60
5009;DHT22;2523;51.058;6.922;2022-08-11T13:37:48;35.10;13.70
5009;DHT22;2523;51.058;6.922;2022-08-11T13:40:17;35.00;14.70
5009;DHT22;2523;51.058;6.922;2022-08-11T13:42:45;35.20;14.60
5009;DHT22;2523;51.058;6.922;2022-08-11T13:45:11;35.60;15.10
5009;DHT22;2523;51.058;6.922;2022-08-11T13:47:38;35.50;14.10
5009;DHT22;2523;51.058;6.922;2022-08-11T13:50:06;35.40;14.80
5009;DHT22;2523;51.058;6.922;2022-08-11T13:52:33;35.50;14.90
5009;DHT22;2523;51.058;6.922;2022-08-11T13:55:01;35.00;13.70
5009;DHT22;2523;51.058;6.922;2022-08-11T13:57:30;34.90;14.10
5009;DHT22;2523;51.058;6.922;2022-08-11T13:59:58;35.00;14.50
5009;DHT22;2523;51.058;6.922;2022-08-11T14:02:35;35.20;15.10
5009;DHT22;2523;51.058;6.922;2022-08-11T14:05:15;35.30;15.70
5009;DHT22;2523;51.058;6.922;2022-08-11T14:07:50;35.40;14.70
5009;DHT22;2523;51.058;6.922;2022-08-11T14:10:18;35.30;14.30
5009;DHT22;2523;51.058;6.922;2022-08-11T14:12:50;35.20;14.60
5009;DHT22;2523;51.058;6.922;2022-08-11T14:15:41;35.00;15.20
5009;DHT22;2523;51.058;6.922;2022-08-11T14:18:10;34.80;14.70
5009;DHT22;2523;51.058;6.922;2022-08-11T14:20:40;34.50;15.60
5009;DHT22;2523;51.058;6.922;2022-08-11T14:23:28;34.40;15.30
5009;DHT22;2523;51.058;6.922;2022-08-11T14:25:55;34.00;15.70
5009;DHT22;2523;51.058;6.922;2022-08-11T14:28:40;33.70;15.20
5009;DHT22;2523;51.058;6.922;2022-08-11T14:31:07;33.50;15.60
5009;DHT22;2523;51.058;6.922;2022-08-11T14:33:34;33.40;15.20
5009;DHT22;2523;51.058;6.922;2022-08-11T14:36:02;33.20;16.00
5009;DHT22;2523;51.058;6.922;2022-08-11T14:38:34;33.20;16.10
5009;DHT22;2523;51.058;6.922;2022-08-11T14:41:01;32.90;14.80
5009;DHT22;2523;51.058;6.922;2022-08-11T14:43:46;32.90;15.30
5009;DHT22;2523;51.058;6.922;2022-08-11T14:46:32;32.90;15.20
5009;DHT22;2523;51.058;6.922;2022-08-11T14:49:16;32.80;15.70
5009;DHT22;2523;51.058;6.922;2022-08-11T14:51:43;32.70;15.30
5009;DHT22;2523;51.058;6.922;2022-08-11T14:54:09;32.50;14.90
5009;DHT22;2523;51.058;6.922;2022-08-11T14:56:54;32.40;14.60
5009;DHT22;2523;51.058;6.922;2022-08-11T14:59:21;32.40;15.20
5009;DHT22;2523;51.058;6.922;2022-08-11T15:01:47;32.30;15.20
5009;DHT22;2523;51.058;6.922;2022-08-11T15:04:32;32.20;15.70
5009;DHT22;2523;51.058;6.922;2022-08-11T15:06:58;32.20;16.30
5009;DHT22;2523;51.058;6.922;2022-08-11T15:09:24;32.10;15.70
5009;DHT22;2523;51.058;6.922;2022-08-11T15:11:50;32.00;16.00
5009;DHT22;2523;51.058;6.922;2022-08-11T15:14:35;31.90;15.60
5009;DHT22;2523;51.058;6.922;2022-08-11T15:17:20;31.90;17.00
5009;DHT22;2523;51.058;6.922;2022-08-11T15:19:48;31.70;16.30
5009;DHT22;2523;51.058;6.922;2022-08-11T15:22:33;31.70;16.00
5009;DHT22;2523;51.058;6.922;2022-08-11T15:25:18;31.60;16.40
5009;DHT22;2523;51.058;6.922;2022-08-11T15:27:49;31.50;16.00
5009;DHT22;2523;51.058;6.922;2022-08-11T15:30:35;31.50;16.50
5009;DHT22;2523;51.058;6.922;2022-08-11T15:33:21;31.50;18.10
5009;DHT22;2523;51.058;6.922;2022-08-11T15:36:07;31.40;18.00
5009;DHT22;2523;51.058;6.922;2022-08-11T15:38:58;31.30;17.00
5009;DHT22;2523;51.058;6.922;2022-08-11T15:42:06;31.30;17.50
5009;DHT22;2523;51.058;6.922;2022-08-11T15:44:57;31.30;17.40
5009;DHT22;2523;51.058;6.922;2022-08-11T15:47:47;31.30;18.10
5009;DHT22;2523;51.058;6.922;2022-08-11T15:50:16;31.30;17.50
5009;DHT22;2523;51.058;6.922;2022-08-11T15:52:57;31.30;17.40
5009;DHT22;2523;51.058;6.922;2022-08-11T15:55:24;31.30;16.70
5009;DHT22;2523;51.058;6.922;2022-08-11T15:57:54;31.20;16.90
5009;DHT22;2523;51.058;6.922;2022-08-11T16:00:39;31.20;16.50
5009;DHT22;2523;51.058;6.922;2022-08-11T16:03:25;31.20;17.30
5009;DHT22;2523;51.058;6.922;2022-08-11T16:06:11;31.10;17.90
5009;DHT22;2523;51.058;6.922;2022-08-11T16:08:39;31.10;17.40
5009;DHT22;2523;51.058;6.922;2022-08-11T16:11:07;31.00;17.10
5009;DHT22;2523;51.058;6.922;2022-08-11T16:13:36;31.10;17.40
5009;DHT22;2523;51.058;6.922;2022-08-11T16:16:07;31.10;17.20
5009;DHT22;2523;51.058;6.922;2022-08-11T16:18:52;31.00;17.90
5009;DHT22;2523;51.058;6.922;2022-08-11T16:21:29;31.00;18.40
5009;DHT22;2523;51.058;6.922;2022-08-11T16:23:58;31.00;17.40
5009;DHT22;2523;51.058;6.922;2022-08-11T16:26:26;31.00;17.70
5009;DHT22;2523;51.058;6.922;2022-08-11T16:28:55;31.00;17.30
5009;DHT22;2523;51.058;6.922;2022-08-11T16:31:23;31.00;17.90
5009;DHT22;2523;51.058;6.922;2022-08-11T16:33:49;31.00;17.40
5009;DHT22;2523;51.058;6.922;2022-08-11T16:36:15;31.00;17.30
5009;DHT22;2523;51.058;6.922;2022-08-11T16:39:02;30.90;18.60
5009;DHT22;2523;51.058;6.922;2022-08-11T16:41:30;30.90;18.80
5009;DHT22;2523;51.058;6.922;2022-08-11T16:44:17;30.80;19.50
5009;DHT22;2523;51.058;6.922;2022-08-11T16:47:03;30.70;18.40
5009;DHT22;2523;51.058;6.922;2022-08-11T16:49:42;30.70;17.90
5009;DHT22;2523;51.058;6.922;2022-08-11T16:52:11;30.70;17.60
5009;DHT22;2523;51.058;6.922;2022-08-11T16:54:38;30.70;17.70
5009;DHT22;2523;51.058;6.922;2022-08-11T16:57:30;30.70;18.30
5009;DHT22;2523;51.058;6.922;2022-08-11T17:00:16;30.60;19.60
5009;DHT22;2523;51.058;6.922;2022-08-11T17:02:50;30.60;18.80
5009;DHT22;2523;51.058;6.922;2022-08-11T17:05:37;30.60;19.60
5009;DHT22;2523;51.058;6.922;2022-08-11T17:08:39;30.50;19.40
5009;DHT22;2523;51.058;6.922;2022-08-11T17:11:29;30.50;19.80
5009;DHT22;2523;51.058;6.922;2022-08-11T17:14:18;30.40;20.10
5009;DHT22;2523;51.058;6.922;2022-08-11T17:16:45;30.30;20.00
5009;DHT22;2523;51.058;6.922;2022-08-11T17:19:21;30.20;19.50
5009;DHT22;2523;51.058;6.922;2022-08-11T17:21:49;30.20;20.10
5009;DHT22;2523;51.058;6.922;2022-08-11T17:24:36;30.20;19.50
5009;DHT22;2523;51.058;6.922;2022-08-11T17:27:04;30.00;21.30
5009;DHT22;2523;51.058;6.922;2022-08-11T17:29:39;29.90;19.80
5009;DHT22;2523;51.058;6.922;2022-08-11T17:32:10;29.90;20.10
5009;DHT22;2523;51.058;6.922;2022-08-11T17:34:58;29.90;20.50
5009;DHT22;2523;51.058;6.922;2022-08-11T17:37:45;29.70;21.00
5009;DHT22;2523;51.058;6.922;2022-08-11T17:40:14;29.70;20.80
5009;DHT22;2523;51.058;6.922;2022-08-11T17:42:43;29.60;20.80
5009;DHT22;2523;51.058;6.922;2022-08-11T17:45:28;29.60;20.80
5009;DHT22;2523;51.058;6.922;2022-08-11T17:48:12;29.50;20.90
5009;DHT22;2523;51.058;6.922;2022-08-11T17:50:56;29.50;20.80
5009;DHT22;2523;51.058;6.922;2022-08-11T17:53:24;29.50;21.30
5009;DHT22;2523;51.058;6.922;2022-08-11T17:56:09;29.50;21.10
5009;DHT22;2523;51.058;6.922;2022-08-11T17:58:55;29.40;20.80
5009;DHT22;2523;51.058;6.922;2022-08-11T18:01:41;29.40;20.80
5009;DHT22;2523;51.058;6.922;2022-08-11T18:04:09;29.30;21.70
5009;DHT22;2523;51.058;6.922;2022-08-11T18:06:36;29.30;21.30
5009;DHT22;2523;51.058;6.922;2022-08-11T18:09:06;29.30;21.70
5009;DHT22;2523;51.058;6.922;2022-08-11T18:11:52;29.20;21.90
5009;DHT22;2523;51.058;6.922;2022-08-11T18:14:37;29.10;22.00
5009;DHT22;2523;51.058;6.922;2022-08-11T18:17:22;29.00;22.30
5009;DHT22;2523;51.058;6.922;2022-08-11T18:20:06;28.90;22.30
5009;DHT22;2523;51.058;6.922;2022-08-11T18:22:52;28.80;21.80
5009;DHT22;2523;51.058;6.922;2022-08-11T18:25:44;28.80;22.10
5009;DHT22;2523;51.058;6.922;2022-08-11T18:28:34;28.80;22.10
5009;DHT22;2523;51.058;6.922;2022-08-11T18:31:21;28.70;22.00
5009;DHT22;2523;51.058;6.922;2022-08-11T18:34:09;28.70;22.20
5009;DHT22;2523;51.058;6.922;2022-08-11T18:37:05;28.60;22.30
5009;DHT22;2523;51.058;6.922;2022-08-11T18:39:55;28.50;22.00
5009;DHT22;2523;51.058;6.922;2022-08-11T18:42:43;28.50;22.50
5009;DHT22;2523;51.058;6.922;2022-08-11T18:45:28;28.40;22.40
5009;DHT22;2523;51.058;6.922;2022-08-11T18:48:15;28.40;22.50
5009;DHT22;2523;51.058;6.922;2022-08-11T18:51:02;28.30;22.50
5009;DHT22;2523;51.058;6.922;2022-08-11T18:53:49;28.30;22.90
5009;DHT22;2523;51.058;6.922;2022-08-11T18:56:35;28.30;23.00
5009;DHT22;2523;51.058;6.922;2022-08-11T18:59:23;28.20;22.80
5009;DHT22;2523;51.058;6.922;2022-08-11T19:02:10;28.10;23.30
5009;DHT22;2523;51.058;6.922;2022-08-11T19:04:57;28.00;23.10
5009;DHT22;2523;51.058;6.922;2022-08-11T19:07:44;28.00;23.10
5009;DHT22;2523;51.058;6.922;2022-08-11T19:10:29;28.00;23.30
5009;DHT22;2523;51.058;6.922;2022-08-11T19:13:14;27.90;23.30
5009;DHT22;2523;51.058;6.922;2022-08-11T19:15:59;27.90;23.40
5009;DHT22;2523;51.058;6.922;2022-08-11T19:18:45;27.80;23.30
5009;DHT22;2523;51.058;6.922;2022-08-11T19:21:32;27.80;23.70
5009;DHT22;2523;51.058;6.922;2022-08-11T19:24:19;27.70;23.70
5009;DHT22;2523;51.058;6.922;2022-08-11T19:27:04;27.60;23.70
5009;DHT22;2523;51.058;6.922;2022-08-11T19:29:48;27.60;23.80
5009;DHT22;2523;51.058;6.922;2022-08-11T19:32:33;27.50;23.60
5009;DHT22;2523;51.058;6.922;2022-08-11T19:35:19;27.50;23.70
5009;DHT22;2523;51.058;6.922;2022-08-11T19:38:03;27.50;23.80
5009;DHT22;2523;51.058;6.922;2022-08-11T19:40:49;27.40;24.50
5009;DHT22;2523;51.058;6.922;2022-08-11T19:43:33;27.40;24.00
5009;DHT22;2523;51.058;6.922;2022-08-11T19:46:21;27.40;24.60
5009;DHT22;2523;51.058;6.922;2022-08-11T19:49:06;27.30;24.80
5009;DHT22;2523;51.058;6.922;2022-08-11T19:51:51;27.20;23.90
5009;DHT22;2523;51.058;6.922;2022-08-11T19:54:37;27.20;24.30
5009;DHT22;2523;51.058;6.922;2022-08-11T19:57:22;27.20;24.20
5009;DHT22;2523;51.058;6.922;2022-08-11T20:00:15;27.10;24.00
5009;DHT22;2523;51.058;6.922;2022-08-11T20:03:02;27.00;24.20
5009;DHT22;2523;51.058;6.922;2022-08-11T20:05:47;27.00;24.10
5009;DHT22;2523;51.058;6.922;2022-08-11T20:08:33;27.00;24.40
5009;DHT22;2523;51.058;6.922;2022-08-11T20:11:18;27.00;24.40
5009;DHT22;2523;51.058;6.922;2022-08-11T20:14:03;26.90;24.60
5009;DHT22;2523;51.058;6.922;2022-08-11T20:16:50;26.90;24.50
5009;DHT22;2523;51.058;6.922;2022-08-11T20:19:36;26.80;24.80
5009;DHT22;2523;51.058;6.922;2022-08-11T20:22:23;26.80;24.60
5009;DHT22;2523;51.058;6.922;2022-08-11T20:25:09;26.70;25.10
5009;DHT22;2523;51.058;6.922;2022-08-11T20:27:54;26.70;25.10
5009;DHT22;2523;51.058;6.922;2022-08-11T20:30:41;26.70;25.10
5009;DHT22;2523;51.058;6.922;2022-08-11T20:33:26;26.60;24.80
5009;DHT22;2523;51.058;6.922;2022-08-11T20:36:12;26.50;25.20
5009;DHT22;2523;51.058;6.922;2022-08-11T20:38:57;26.50;25.40
5009;DHT22;2523;51.058;6.922;2022-08-11T20:41:43;26.50;25.40
5009;DHT22;2523;51.058;6.922;2022-08-11T20:44:30;26.40;25.50
5009;DHT22;2523;51.058;6.922;2022-08-11T20:47:16;26.40;25.30
5009;DHT22;2523;51.058;6.922;2022-08-11T20:50:01;26.30;26.50
5009;DHT22;2523;51.058;6.922;2022-08-11T20:52:46;26.30;26.10
5009;DHT22;2523;51.058;6.922;2022-08-11T20:55:30;26.20;25.90
5009;DHT22;2523;51.058;6.922;2022-08-11T20:58:16;26.20;26.30
5009;DHT22;2523;51.058;6.922;2022-08-11T21:01:01;26.10;25.90
5009;DHT22;2523;51.058;6.922;2022-08-11T21:03:45;26.00;25.90